NCAR-RAP Real-Time Weather Data

Output produced by METARs form (23 June 2018  19:39 UTC)
found at http://weather.rap.ucar.edu/surface/
 
RJFO 231300Z VRB02KT 7000 FEW002 SCT035 BKN060 20/20 Q1005
RJFO 231200Z 22003KT 6000 FEW002 SCT050 BKN070 19/19 Q1005
RJFO 231115Z 17003KT 5000 -SHRA BR FEW002 BKN020 BKN050 19/19 Q1005 RMK 1ST002 5CU020 6SC050 A2968
RJFO 231100Z 18003KT 4500 -SHRA BR FEW002 SCT005 BKN020 19/19 Q1005
RJFO 231023Z 19003KT 150V210 3000 -SHRA BR FEW003 SCT010 BKN020 20/19 Q1005 RMK 1ST003 3ST010 6CU020 A2969
RJFO 231010Z 20003KT 4500 -SHRA BR FEW003 SCT020 BKN025 20/19 Q1005 RMK 1ST003 3CU020 6CU025 A2969
RJFO 231000Z 20002KT 5000 -SHRA BR FEW003 SCT020 BKN025 20/19 Q1005
RJFO 230947Z 00000KT 4000 -SHRA BR FEW005 SCT020 BKN025 20/19 Q1004 RMK 1ST005 3CU020 6CU025 A2967
RJFO 230927Z VRB02KT 4500 SHRA BR FEW006 BKN020 BKN025 20/19 Q1004 RMK 1ST006 5CU020 6CU025 A2966
RJFO 230900Z 12003KT 9999 -SHRA FEW009 BKN020 BKN030 20/19 Q1004
RJFO 230800Z VRB02KT 9999 -SHRA FEW009 SCT025 BKN030 21/19 Q1004
RJFO 230700Z 19006KT 9999 FEW020 SCT030 BKN050 20/19 Q1004
RJFO 230600Z 16004KT 9999 FEW015 SCT020 BKN030 21/19 Q1004
RJFO 230500Z 18005KT 9999 FEW015 BKN025 20/19 Q1004
RJFO 230400Z 14003KT 9999 FEW006 SCT015 BKN025 20/19 Q1004
RJFO 230300Z 23005KT 9999 FEW004 BKN015 BKN025 20/19 Q1005
RJFO 230200Z 27008KT 9999 -SHRA FEW005 SCT008 BKN015 18/18 Q1005
RJFO 230132Z 15007KT 110V200 9999 -SHRA FEW005 BKN025 BKN040 18/17 Q1003 RMK 1ST005 5CU025 7CU040 A2964 P/FR
RJFO 230100Z 22010KT 9999 -SHRA FEW005 SCT009 BKN025 18/17 Q1005
RJFO 230000Z 21011KT 9999 -SHRA FEW006 BKN035 18/16 Q1005
RJFO 222300Z 21016KT 9999 FEW009 SCT035 BKN070 17/15 Q1005
RJFO 222200Z 21012KT 9999 FEW005 SCT025 BKN100 19/18 Q1005
RJFO 221300Z 20004KT CAVOK 22/21 Q1008
RJFO 221200Z 20003KT 140V260 CAVOK 22/21 Q1008
RJFO 221100Z 14005KT 110V180 CAVOK 23/22 Q1008
RJFO 221000Z 02003KT 350V090 9999 FEW035 SCT150 BKN/// 23/21 Q1008
RJFO 220900Z 04004KT 9999 FEW030 SCT150 BKN/// 23/20 Q1008
RJFO 220800Z VRB02KT 9999 FEW030 SCT150 BKN/// 23/20 Q1007
RJFO 220700Z 06003KT 020V090 9999 FEW030 SCT160 BKN/// 23/20 Q1007
RJFO 220600Z VRB05KT 9000 FEW020 SCT180 BKN/// 23/20 Q1007
RJFO 220500Z 07004KT 9999 FEW030 SCT180 BKN/// 23/20 Q1008
RJFO 220400Z 09004KT 9999 FEW030 SCT180 BKN/// 23/20 Q1008
RJFO 220300Z 07006KT 9999 FEW025 BKN/// 23/20 Q1009
RJFO 220200Z 07005KT 8000 FEW030 BKN/// 23/20 Q1010
RJFO 220100Z 07005KT 5000 BR FEW030 BKN/// 23/21 Q1010
RJFO 220000Z 16003KT 130V190 5000 BR FEW030 BKN/// 23/21 Q1010
RJFO 212300Z 13003KT 9999 FEW030 SCT160 BKN/// 22/21 Q1010
RJFO 212200Z VRB02KT 7000 FEW030 BKN/// 22/21 Q1009
RJFO 211300Z 25003KT 9999 FEW050 BKN/// 21/20 Q1008
RJFO 211200Z 24003KT 190V270 9999 FEW045 BKN/// 22/20 Q1007
RJFO 211100Z 15003KT 9999 FEW035 BKN/// 22/20 Q1007
RJFO 211000Z 23002KT 9999 FEW035 BKN/// 23/19 Q1007
RJFO 210900Z VRB02KT CAVOK 23/20 Q1006
RJFO 210800Z 15006KT 9999 FEW030 BKN/// 23/21 Q1006